»·PEaware :: VRD2056 KLAS-KRNO

VRD2056 :: KLAS-KRNO

FLIGHT INFORMATION

Flight Status: Arrived
Operator:
Virgin America
More flights by this operator :: More flights under this callsign
Pilot: Josh G. (4619)
Aircraft: AIRBUS A320
(A320)
More flights by this aircraft type
Origin: KLAS McCarran Intl
United States
Destination: KRNO Reno/Tahoe Intl
United States
More flights between these airports :: More routes between these airports
Route: SHEAD1 KENNO KENNO2
File this flight plan on PilotEdge
Remarks: Stream
Altitude:
(Current/Filed)
32,000ft
Speed:
(Current/Filed)
320kts
Departed: 26-Nov-17 05:44 PM
Arrived: 26-Nov-17 06:43 PM
Distance/Time
Traveled:
300nm/0:58
Distance/Time
To Go:
Arrived

Flight Plot

Page will automatically refresh every two minutes.

Flight plan parsing failed; only flown route is shown


Map Options




Map Legend


Flown Route
Filed Route
Departure Airport
Arrival Airport
Navaid (VOR, NDB)
Fix

Horizontal Profiles

Position Reports

Time Latitude Longitude Heading Altitude Ground
Speed
26-Nov-17 17:21 36.079869 -115.139540 355 2191ft 0kts
26-Nov-17 17:22 36.079869 -115.139540 355 2191ft 0kts
26-Nov-17 17:23 36.079869 -115.139540 355 2191ft 0kts
26-Nov-17 17:24 36.079869 -115.139540 355 2191ft 0kts
26-Nov-17 17:25 36.079869 -115.139540 355 2191ft 0kts
26-Nov-17 17:26 36.079869 -115.139540 355 2191ft 0kts
26-Nov-17 17:27 36.079869 -115.139540 355 2191ft 0kts
26-Nov-17 17:28 36.079869 -115.139540 355 2191ft 0kts
26-Nov-17 17:29 36.079869 -115.139540 355 2191ft 0kts
26-Nov-17 17:30 36.079869 -115.139540 355 2191ft 0kts
26-Nov-17 17:31 36.079869 -115.139540 355 2191ft 0kts
26-Nov-17 17:32 36.079869 -115.139540 355 2191ft 0kts
26-Nov-17 17:33 36.079869 -115.139540 355 2191ft 0kts
26-Nov-17 17:34 36.079869 -115.139540 355 2191ft 0kts
26-Nov-17 17:35 36.079869 -115.139540 355 2191ft 0kts
26-Nov-17 17:36 36.079869 -115.139540 355 2191ft 0kts
26-Nov-17 17:37 36.079869 -115.139540 355 2191ft 0kts
26-Nov-17 17:38 36.079859 -115.139539 357 2191ft 1kts
26-Nov-17 17:39 36.079396 -115.139448 353 2191ft 2kts
26-Nov-17 17:40 36.079090 -115.139327 246 2191ft 1kts
26-Nov-17 17:41 36.079306 -115.138962 226 2191ft 0kts
26-Nov-17 17:42 36.079306 -115.138962 226 2191ft 0kts
26-Nov-17 17:43 36.078833 -115.139537 215 2191ft 7kts
26-Nov-17 17:44 36.078256 -115.136213 91 2191ft 16kts
26-Nov-17 17:45 36.078234 -115.131696 88 2191ft 15kts
26-Nov-17 17:46 36.078264 -115.126423 91 2191ft 15kts
26-Nov-17 17:47 36.077529 -115.121666 134 2191ft 13kts
26-Nov-17 17:48 36.076406 -115.122676 270 2191ft 0kts
26-Nov-17 17:49 36.076399 -115.135926 269 2191ft 153kts
26-Nov-17 17:50 36.076199 -115.198166 270 4866ft 203kts
26-Nov-17 17:51 36.052289 -115.264722 203 6840ft 275kts
26-Nov-17 17:52 35.983304 -115.296524 200 7039ft 281kts
26-Nov-17 17:53 35.925311 -115.357447 224 8643ft 285kts
26-Nov-17 17:54 35.886310 -115.432823 271 9223ft 290kts
26-Nov-17 17:55 35.888240 -115.526331 273 11054ft 325kts
26-Nov-17 17:56 35.890210 -115.631137 267 11664ft 335kts
26-Nov-17 17:57 35.892036 -115.738252 266 14126ft 346kts
26-Nov-17 17:58 35.893794 -115.845802 265 16397ft 353kts
26-Nov-17 17:59 35.901348 -115.964494 285 18548ft 378kts
26-Nov-17 18:00 35.976476 -116.063734 309 20350ft 413kts
26-Nov-17 18:01 36.060707 -116.160811 308 22044ft 424kts
26-Nov-17 18:02 36.132384 -116.243632 308 23307ft 433kts
26-Nov-17 18:03 36.216435 -116.341002 308 24648ft 442kts
26-Nov-17 18:04 36.306011 -116.445101 308 25979ft 448kts
26-Nov-17 18:05 36.396751 -116.550903 308 27189ft 455kts
26-Nov-17 18:06 36.483630 -116.652534 307 28239ft 461kts
26-Nov-17 18:07 36.570493 -116.751424 315 29258ft 474kts
26-Nov-17 18:08 36.679794 -116.835740 319 30679ft 474kts
26-Nov-17 18:09 36.790576 -116.920103 319 31982ft 471kts
26-Nov-17 18:10 36.901409 -117.004771 318 32066ft 473kts
26-Nov-17 18:11 37.010715 -117.088543 318 32068ft 473kts
26-Nov-17 18:12 37.114091 -117.168035 318 32129ft 474kts
26-Nov-17 18:13 37.214272 -117.245313 318 32119ft 473kts
26-Nov-17 18:14 37.315952 -117.329100 309 32113ft 461kts
26-Nov-17 18:15 37.412208 -117.432114 309 32115ft 460kts
26-Nov-17 18:16 37.509752 -117.532251 316 32116ft 471kts
26-Nov-17 18:17 37.617579 -117.617507 316 32114ft 473kts
26-Nov-17 18:18 37.721315 -117.699876 313 32073ft 482kts
26-Nov-17 18:19 37.823679 -117.781347 313 32157ft 486kts
26-Nov-17 18:20 37.936201 -117.871217 313 32174ft 486kts
26-Nov-17 18:21 38.046615 -117.959738 313 32159ft 486kts
26-Nov-17 18:22 38.149148 -118.042229 313 32112ft 484kts
26-Nov-17 18:23 38.249807 -118.123482 313 32101ft 483kts
26-Nov-17 18:24 38.351084 -118.205515 313 32107ft 482kts
26-Nov-17 18:25 38.448508 -118.298032 301 32114ft 459kts
26-Nov-17 18:26 38.537557 -118.408095 301 31986ft 459kts
26-Nov-17 18:27 38.623316 -118.514216 301 30342ft 452kts
26-Nov-17 18:28 38.707693 -118.619039 302 28352ft 439kts
26-Nov-17 18:29 38.783825 -118.713761 302 26487ft 430kts
26-Nov-17 18:30 38.848655 -118.794512 302 24873ft 422kts
26-Nov-17 18:31 38.919342 -118.882816 303 23082ft 414kts
26-Nov-17 18:32 38.992757 -118.974810 304 21163ft 405kts
26-Nov-17 18:33 39.051267 -119.048327 304 19627ft 396kts
26-Nov-17 18:34 39.110277 -119.122655 305 18065ft 386kts
26-Nov-17 18:35 39.172955 -119.201800 305 16409ft 372kts
26-Nov-17 18:36 39.236088 -119.281671 306 14416ft 371kts
26-Nov-17 18:37 39.299490 -119.361850 306 12628ft 357kts
26-Nov-17 18:38 39.363404 -119.439195 314 11755ft 309kts
26-Nov-17 18:39 39.426385 -119.497989 320 10460ft 281kts
26-Nov-17 18:40 39.487826 -119.555508 319 9339ft 272kts
26-Nov-17 18:41 39.543637 -119.607838 319 8901ft 244kts
26-Nov-17 18:42 39.592337 -119.654114 316 8290ft 213kts
26-Nov-17 18:43 39.615960 -119.704719 261 7252ft 158kts
26-Nov-17 18:44 39.600406 -119.748775 220 6260ft 139kts
26-Nov-17 18:45 39.567150 -119.766194 184 5406ft 140kts
26-Nov-17 18:46 39.532145 -119.766527 184 4807ft 131kts
26-Nov-17 18:47 39.501984 -119.766757 181 4424ft 53kts
26-Nov-17 18:48 39.498124 -119.766803 180 4424ft 15kts
26-Nov-17 18:49 39.497350 -119.770233 269 4424ft 0kts
26-Nov-17 18:50 39.497346 -119.770829 269 4424ft 3kts
26-Nov-17 18:51 39.498490 -119.771518 0 4424ft 7kts
26-Nov-17 18:52 39.500864 -119.771505 0 4424ft 9kts
26-Nov-17 18:53 39.503629 -119.771483 0 4424ft 10kts
26-Nov-17 18:54 39.505632 -119.772401 216 4424ft 11kts

Navigation Log

Ident Type
Flight plan parsing failed, navigation log unavailable